Time;durP1;ratioP1;P1;durP2;ratioP2;P2;SDS_P1;SDS_P2;PMS_P1;PMS_P2;Temp;Humidity;BMP_temperature;BMP_pressure;BME280_temperature;BME280_humidity;BME280_pressure;Samples;Min_cycle;Max_cycle;Signal;HPM_P1;HPM_P2
2022/06/08 00:02:14;;;;;;;5.83;2.43;;;14.80;65.30;;;;;;5038791;28;46979;-62
2022/06/08 00:04:39;;;;;;;5.00;2.80;;;14.90;65.30;;;;;;5038373;28;46085;-61
2022/06/08 00:07:05;;;;;;;4.27;3.30;;;14.80;65.40;;;;;;5039556;28;46278;-61
2022/06/08 00:09:31;;;;;;;10.43;2.73;;;14.90;65.60;;;;;;5039221;28;46434;-61
2022/06/08 00:11:57;;;;;;;7.40;3.07;;;14.90;65.80;;;;;;5038866;28;46622;-61
2022/06/08 00:14:22;;;;;;;4.60;2.80;;;14.90;66.00;;;;;;5039541;28;47008;-61
2022/06/08 00:16:48;;;;;;;5.97;3.10;;;14.90;66.20;;;;;;5039371;28;46393;-61
2022/06/08 00:19:14;;;;;;;7.90;3.63;;;14.90;66.40;;;;;;5037748;28;46794;-62
2022/06/08 00:21:39;;;;;;;6.40;3.00;;;15.00;66.50;;;;;;5039835;28;46338;-62
2022/06/08 00:24:05;;;;;;;4.33;2.83;;;15.00;66.60;;;;;;5039388;28;46300;-61
2022/06/08 00:26:31;;;;;;;5.10;3.50;;;15.00;66.90;;;;;;5039522;28;46429;-62
2022/06/08 00:28:57;;;;;;;5.93;3.00;;;15.00;67.10;;;;;;5039194;28;46442;-61
2022/06/08 00:31:23;;;;;;;6.00;3.10;;;15.00;67.30;;;;;;5038237;28;46480;-61
2022/06/08 00:33:48;;;;;;;5.67;3.30;;;15.00;67.60;;;;;;5038767;28;47159;-62
2022/06/08 00:36:14;;;;;;;11.37;3.40;;;15.00;67.60;;;;;;5038470;28;46515;-62
2022/06/08 00:38:40;;;;;;;9.40;3.90;;;15.00;67.80;;;;;;5037959;28;46335;-61
2022/06/08 00:41:38;;;;;;;7.17;3.80;;;15.00;67.90;;;;;;5038831;28;45917;-61
2022/06/08 00:44:09;;;;;;;11.43;3.90;;;15.00;67.90;;;;;;5039047;28;47144;-61
2022/06/08 00:46:35;;;;;;;6.30;3.43;;;15.00;67.50;;;;;;5038891;28;46295;-62
2022/06/08 00:49:11;;;;;;;5.50;3.30;;;15.00;67.60;;;;;;5038915;28;46413;-60
2022/06/08 00:51:38;;;;;;;6.60;3.20;;;15.10;67.80;;;;;;5038999;28;45775;-60
2022/06/08 00:54:07;;;;;;;5.60;3.20;;;15.10;67.60;;;;;;5038815;28;46792;-60
2022/06/08 00:56:38;;;;;;;5.43;3.43;;;15.10;67.70;;;;;;5037373;28;46422;-60
2022/06/08 00:59:06;;;;;;;4.73;3.30;;;15.10;67.60;;;;;;5036594;28;46342;-60
2022/06/08 01:01:32;;;;;;;4.17;2.87;;;15.00;67.80;;;;;;5038756;28;46439;-61
2022/06/08 01:04:09;;;;;;;4.40;3.30;;;15.10;67.90;;;;;;5038300;28;47219;-60
2022/06/08 01:06:36;;;;;;;8.63;3.07;;;15.00;68.10;;;;;;5038610;28;46342;-61
2022/06/08 01:09:03;;;;;;;8.40;3.00;;;15.00;68.10;;;;;;5037328;28;46733;-61
2022/06/08 01:11:45;;;;;;;6.23;2.90;;;14.90;68.40;;;;;;5038332;28;46389;-61
2022/06/08 01:14:16;;;;;;;5.80;2.97;;;14.90;69.00;;;;;;5037252;28;46410;-61
2022/06/08 01:16:48;;;;;;;5.03;2.53;;;14.90;68.90;;;;;;5036803;28;46534;-61
2022/06/08 01:19:14;;;;;;;5.03;2.67;;;14.80;68.80;;;;;;5037163;28;46583;-61
2022/06/08 01:21:39;;;;;;;5.00;2.50;;;14.80;68.80;;;;;;5037779;28;46370;-61
2022/06/08 01:24:09;;;;;;;3.80;1.90;;;14.70;68.80;;;;;;5037807;28;47105;-61
2022/06/08 01:27:02;;;;;;;8.33;3.00;;;14.60;68.70;;;;;;5038651;28;46282;-61
2022/06/08 01:29:43;;;;;;;6.80;2.73;;;14.50;69.40;;;;;;5037591;28;45847;-62
2022/06/08 01:32:32;;;;;;;6.00;2.47;;;14.30;69.60;;;;;;5037663;28;46406;-61
2022/06/08 01:35:07;;;;;;;5.13;2.30;;;14.20;70.20;;;;;;5038812;28;46438;-61
2022/06/08 01:37:40;;;;;;;3.60;2.37;;;14.10;70.70;;;;;;5038208;28;46591;-61
2022/06/08 01:40:27;;;;;;;5.77;2.60;;;14.00;71.10;;;;;;5037877;28;46407;-61
2022/06/08 01:43:11;;;;;;;3.77;2.47;;;13.80;71.60;;;;;;5037885;28;46437;-62
2022/06/08 01:46:10;;;;;;;4.50;2.50;;;13.70;72.00;;;;;;5037843;28;46685;-61
2022/06/08 01:48:44;;;;;;;5.70;2.60;;;13.60;72.20;;;;;;5035014;28;46139;-62
2022/06/08 01:51:10;;;;;;;5.63;3.27;;;13.60;72.10;;;;;;5036401;28;45846;-61
2022/06/08 01:53:58;;;;;;;4.77;3.33;;;13.50;72.10;;;;;;5038514;28;45969;-61
2022/06/08 01:56:35;;;;;;;5.97;3.20;;;13.50;72.10;;;;;;5037106;28;46556;-61
2022/06/08 01:59:16;;;;;;;4.23;2.50;;;13.60;71.80;;;;;;5037363;28;46381;-61
2022/06/08 02:02:03;;;;;;;4.77;2.90;;;13.60;71.50;;;;;;5036320;28;46436;-61
2022/06/08 02:04:56;;;;;;;10.73;2.97;;;13.60;71.40;;;;;;5034386;28;46551;-61
2022/06/08 02:07:30;;;;;;;6.07;2.80;;;13.70;71.30;;;;;;5034223;28;46704;-61
2022/06/08 02:10:01;;;;;;;6.07;3.33;;;13.70;71.10;;;;;;5035697;28;46474;-60
2022/06/08 02:12:30;;;;;;;10.20;3.13;;;13.70;71.30;;;;;;5035772;28;45798;-60
2022/06/08 02:15:13;;;;;;;6.20;3.10;;;13.70;71.10;;;;;;5036417;28;46428;-61
2022/06/08 02:17:46;;;;;;;3.57;2.20;;;13.60;71.10;;;;;;5035875;28;47011;-61
2022/06/08 02:20:22;;;;;;;6.17;2.90;;;13.60;71.10;;;;;;5035742;28;46415;-62
2022/06/08 02:23:00;;;;;;;5.53;2.80;;;13.60;71.10;;;;;;5035976;28;46499;-61
2022/06/08 02:25:50;;;;;;;6.60;2.93;;;13.60;70.90;;;;;;5036300;28;46509;-61
2022/06/08 02:28:29;;;;;;;8.03;3.10;;;13.70;70.90;;;;;;5038868;28;46433;-61
2022/06/08 02:31:24;;;;;;;9.00;3.83;;;13.70;70.70;;;;;;5038697;28;46387;-61
2022/06/08 02:36:46;;;;;;;9.27;3.10;;;13.60;70.50;;;;;;5040843;28;46437;-61
2022/06/08 02:39:20;;;;;;;8.70;2.90;;;13.60;70.50;;;;;;5039717;28;47234;-60
2022/06/08 02:41:50;;;;;;;10.60;3.10;;;13.60;70.70;;;;;;5040691;28;46419;-61
2022/06/08 02:44:21;;;;;;;17.03;2.87;;;13.60;70.70;;;;;;5040677;28;46432;-62
2022/06/08 02:47:44;;;;;;;7.40;3.03;;;13.60;70.90;;;;;;5041231;28;46481;-62
2022/06/08 02:50:19;;;;;;;5.40;3.10;;;13.50;71.00;;;;;;5037111;28;46567;-60
2022/06/08 02:52:47;;;;;;;4.60;2.47;;;13.50;70.80;;;;;;5039271;28;46480;-61
2022/06/08 02:55:59;;;;;;;4.53;2.70;;;13.50;70.80;;;;;;5038741;28;46546;-61
2022/06/08 02:58:35;;;;;;;4.57;2.60;;;13.60;71.90;;;;;;5038468;28;46525;-61
2022/06/08 03:01:08;;;;;;;6.50;2.67;;;13.70;70.50;;;;;;5039050;28;46923;-61
2022/06/08 03:03:47;;;;;;;4.80;2.60;;;13.70;70.50;;;;;;5040542;28;46429;-61
2022/06/08 03:06:18;;;;;;;6.80;2.40;;;13.60;70.50;;;;;;5041539;28;46418;-61
2022/06/08 03:08:54;;;;;;;4.00;2.60;;;13.60;70.70;;;;;;5041346;28;46417;-61
2022/06/08 03:11:21;;;;;;;8.40;2.93;;;13.50;71.00;;;;;;5041481;28;46214;-61
2022/06/08 03:13:58;;;;;;;5.43;2.50;;;13.50;71.10;;;;;;5041004;28;46458;-60
2022/06/08 03:16:32;;;;;;;7.67;2.40;;;13.40;71.20;;;;;;5040992;28;46302;-60
2022/06/08 03:18:58;;;;;;;7.93;2.33;;;13.40;71.50;;;;;;5040486;28;46369;-61
2022/06/08 03:21:25;;;;;;;4.50;2.87;;;13.30;71.80;;;;;;5040431;28;46420;-61
2022/06/08 03:23:52;;;;;;;7.80;2.93;;;13.30;71.70;;;;;;5041164;28;46417;-61
2022/06/08 03:26:20;;;;;;;4.87;2.70;;;13.20;71.90;;;;;;5041227;28;46476;-61
2022/06/08 03:28:46;;;;;;;5.37;3.10;;;13.20;72.00;;;;;;5040286;28;46355;-60
2022/06/08 03:31:12;;;;;;;9.30;2.60;;;13.20;72.10;;;;;;5040248;28;48416;-60
2022/06/08 03:33:38;;;;;;;6.97;2.80;;;13.20;72.20;;;;;;5041067;28;46365;-60
2022/06/08 03:36:05;;;;;;;4.90;2.50;;;13.10;72.20;;;;;;5040302;28;46315;-61
2022/06/08 03:38:31;;;;;;;7.63;2.73;;;13.10;72.30;;;;;;5039927;28;45899;-61
2022/06/08 03:40:56;;;;;;;4.07;2.90;;;13.20;72.40;;;;;;5041167;28;46638;-61
2022/06/08 03:43:22;;;;;;;4.50;2.57;;;13.20;72.30;;;;;;5040890;28;46382;-61
2022/06/08 03:45:52;;;;;;;6.07;2.80;;;13.20;72.30;;;;;;5042070;28;46444;-61
2022/06/08 03:48:18;;;;;;;7.23;2.87;;;13.30;72.20;;;;;;5039755;28;46777;-61
2022/06/08 03:50:48;;;;;;;7.67;2.60;;;13.30;72.00;;;;;;5040552;28;47338;-60
2022/06/08 03:53:20;;;;;;;4.87;2.57;;;13.40;72.00;;;;;;5039565;28;46413;-61
2022/06/08 03:55:50;;;;;;;6.77;2.70;;;13.40;71.90;;;;;;5043990;28;46425;-61
2022/06/08 03:58:16;;;;;;;5.17;2.60;;;13.50;71.70;;;;;;5048134;28;46001;-61
2022/06/08 04:00:43;;;;;;;3.70;2.20;;;13.50;71.60;;;;;;5039877;28;46354;-62
2022/06/08 04:03:10;;;;;;;4.47;2.47;;;13.60;72.70;;;;;;5041489;28;46381;-62
2022/06/08 04:05:37;;;;;;;3.63;2.20;;;13.70;71.40;;;;;;5040561;28;46438;-61
2022/06/08 04:08:03;;;;;;;4.20;2.33;;;13.80;71.30;;;;;;5041325;28;45835;-61
2022/06/08 04:10:29;;;;;;;10.17;2.53;;;13.90;71.10;;;;;;5039123;28;47352;-61
2022/06/08 04:12:55;;;;;;;9.40;2.50;;;14.00;71.00;;;;;;5039693;28;46541;-61
2022/06/08 04:18:05;;;;;;;5.27;2.33;;;14.20;70.60;;;;;;5040537;28;46442;-60
2022/06/08 04:20:31;;;;;;;4.93;2.20;;;14.30;70.40;;;;;;5039903;28;46342;-61
2022/06/08 04:22:57;;;;;;;4.33;2.33;;;14.30;70.10;;;;;;5039148;28;46403;-61
2022/06/08 04:25:22;;;;;;;4.60;1.90;;;14.50;69.80;;;;;;5040421;28;46362;-60
2022/06/08 04:27:48;;;;;;;5.83;2.30;;;14.70;68.90;;;;;;5040814;28;46362;-61
2022/06/08 04:30:14;;;;;;;5.17;1.80;;;14.90;68.90;;;;;;5039686;28;48320;-61
2022/06/08 04:32:40;;;;;;;4.97;2.30;;;15.10;68.50;;;;;;5039515;28;45897;-61
2022/06/08 04:35:07;;;;;;;5.80;2.00;;;15.30;67.80;;;;;;5040286;28;46443;-61
2022/06/08 04:37:33;;;;;;;2.73;1.70;;;15.60;67.30;;;;;;5040400;28;46375;-61
2022/06/08 04:39:59;;;;;;;6.53;1.80;;;15.80;66.60;;;;;;5038372;28;46932;-61
2022/06/08 04:42:24;;;;;;;3.77;1.70;;;16.30;65.40;;;;;;5039512;28;46452;-61
2022/06/08 04:44:50;;;;;;;4.53;1.50;;;17.80;63.20;;;;;;5041636;28;46405;-61
2022/06/08 04:47:15;;;;;;;3.63;1.40;;;19.00;60.50;;;;;;5040862;28;46363;-62
2022/06/08 04:49:43;;;;;;;3.70;1.60;;;20.70;57.70;;;;;;5041079;28;46616;-62
2022/06/08 04:52:08;;;;;;;13.63;2.20;;;22.20;53.70;;;;;;5038944;28;46426;-62
2022/06/08 04:54:34;;;;;;;2.50;1.37;;;23.40;50.80;;;;;;5039171;28;46382;-62
2022/06/08 04:57:00;;;;;;;5.70;3.80;;;24.30;48.20;;;;;;5038808;28;46563;-61
2022/06/08 04:59:27;;;;;;;3.93;1.50;;;25.10;45.30;;;;;;5038591;28;46487;-61
2022/06/08 05:01:52;;;;;;;4.23;1.30;;;25.70;42.60;;;;;;5039086;28;46708;-62
2022/06/08 05:04:18;;;;;;;5.40;1.70;;;26.50;40.50;;;;;;5037802;28;45818;-61
2022/06/08 05:06:45;;;;;;;4.57;1.37;;;27.00;39.00;;;;;;5040457;28;46469;-60
2022/06/08 05:09:10;;;;;;;3.07;1.30;;;27.60;36.30;;;;;;5039927;28;46426;-62
2022/06/08 05:11:36;;;;;;;2.97;1.20;;;26.60;37.40;;;;;;5040384;28;46608;-62
2022/06/08 05:14:02;;;;;;;3.20;1.37;;;24.90;40.00;;;;;;5039065;28;46450;-61
2022/06/08 05:16:27;;;;;;;4.47;1.40;;;23.50;42.70;;;;;;5040144;28;46605;-62
2022/06/08 05:18:53;;;;;;;4.87;1.73;;;22.80;43.40;;;;;;5038134;28;47084;-59
2022/06/08 05:21:19;;;;;;;4.47;1.53;;;23.20;42.80;;;;;;5038722;28;46480;-61
2022/06/08 05:23:45;;;;;;;6.07;1.47;;;24.40;40.20;;;;;;5039270;28;46389;-61
2022/06/08 05:26:12;;;;;;;5.83;1.30;;;25.00;38.60;;;;;;5038938;28;45852;-61
2022/06/08 05:28:38;;;;;;;8.13;1.80;;;25.90;35.10;;;;;;5038297;28;46509;-59
2022/06/08 05:31:04;;;;;;;5.80;1.50;;;26.60;32.90;;;;;;5038268;28;46411;-60
2022/06/08 05:33:30;;;;;;;3.53;1.50;;;27.30;31.30;;;;;;5039565;28;46418;-60
2022/06/08 05:35:56;;;;;;;4.67;1.60;;;27.80;29.60;;;;;;5041068;28;46869;-59
2022/06/08 05:38:22;;;;;;;4.63;1.53;;;28.30;27.80;;;;;;5036978;28;46409;-60
2022/06/08 05:40:48;;;;;;;5.33;2.03;;;28.80;27.30;;;;;;5039081;28;46416;-62
2022/06/08 05:43:15;;;;;;;4.10;1.50;;;29.00;26.70;;;;;;5038235;28;46367;-60
2022/06/08 05:45:42;;;;;;;2.57;1.40;;;29.20;26.00;;;;;;5039517;28;45875;-60
2022/06/08 05:48:08;;;;;;;7.27;1.77;;;29.60;25.00;;;;;;5037583;28;46381;-60
2022/06/08 05:50:36;;;;;;;4.23;1.40;;;29.70;24.00;;;;;;5036901;28;46499;-59
2022/06/08 05:53:01;;;;;;;4.50;1.50;;;28.50;25.90;;;;;;5036650;28;46433;-60
2022/06/08 05:55:28;;;;;;;4.20;1.40;;;26.80;29.00;;;;;;5036940;28;46054;-59
2022/06/08 05:57:53;;;;;;;4.10;1.60;;;25.70;31.70;;;;;;5037188;28;46450;-60
2022/06/08 06:00:26;;;;;;;5.60;1.50;;;25.00;33.50;;;;;;5031571;28;46066;-59
2022/06/08 06:02:52;;;;;;;3.63;1.37;;;24.60;34.10;;;;;;5043909;28;46374;-60
2022/06/08 06:05:22;;;;;;;5.20;1.87;;;23.90;35.00;;;;;;5043265;28;46449;-59
2022/06/08 06:07:48;;;;;;;3.77;1.43;;;23.20;35.60;;;;;;5044744;28;47143;-60
2022/06/08 06:10:15;;;;;;;5.00;1.50;;;22.70;36.30;;;;;;5042121;28;46480;-60
2022/06/08 06:12:40;;;;;;;13.60;2.17;;;22.30;36.10;;;;;;5044244;28;46445;-60
2022/06/08 06:15:08;;;;;;;3.47;1.37;;;22.30;36.10;;;;;;5043304;28;46456;-61
2022/06/08 06:17:34;;;;;;;4.53;1.53;;;22.30;36.10;;;;;;5043621;28;47443;-60
2022/06/08 06:19:59;;;;;;;4.67;1.70;;;22.20;36.10;;;;;;5043283;28;46479;-60
2022/06/08 06:22:25;;;;;;;5.00;1.50;;;22.10;36.00;;;;;;5043775;28;46429;-60
2022/06/08 06:24:51;;;;;;;5.27;1.40;;;21.80;36.30;;;;;;5045095;28;46366;-60
2022/06/08 06:27:16;;;;;;;4.90;1.80;;;21.70;36.60;;;;;;5045641;28;46433;-60
2022/06/08 06:29:42;;;;;;;9.13;1.80;;;21.50;37.00;;;;;;5043458;28;46450;-60
2022/06/08 06:32:15;;;;;;;3.47;1.50;;;21.50;37.20;;;;;;5044415;28;46717;-61
2022/06/08 06:34:41;;;;;;;10.00;1.67;;;21.50;37.40;;;;;;5043118;28;46438;-61
2022/06/08 06:37:06;;;;;;;4.53;1.53;;;21.30;38.00;;;;;;5045851;28;46549;-61
2022/06/08 06:39:33;;;;;;;7.00;1.77;;;21.00;38.10;;;;;;5043152;28;46468;-60
2022/06/08 06:41:59;;;;;;;10.50;1.80;;;20.90;38.30;;;;;;5044748;28;46542;-60
2022/06/08 06:44:25;;;;;;;7.03;2.10;;;21.00;38.60;;;;;;5044261;28;46519;-61
2022/06/08 06:46:51;;;;;;;4.97;2.10;;;21.00;39.90;;;;;;5043424;28;46470;-60
2022/06/08 06:49:16;;;;;;;4.57;1.50;;;20.90;38.60;;;;;;5049351;28;46406;-61
2022/06/08 06:51:43;;;;;;;8.20;1.97;;;21.00;38.80;;;;;;5044573;28;46534;-60
2022/06/08 06:54:11;;;;;;;10.27;2.43;;;21.00;39.00;;;;;;5046697;28;46512;-60
2022/06/08 06:56:37;;;;;;;6.00;1.80;;;21.10;38.90;;;;;;5043986;28;46818;-61
2022/06/08 06:59:03;;;;;;;5.33;1.80;;;21.10;38.90;;;;;;5043761;28;46460;-60
2022/06/08 07:01:29;;;;;;;5.70;1.80;;;21.20;39.10;;;;;;5044142;28;46397;-61
2022/06/08 07:03:57;;;;;;;7.77;1.87;;;21.20;39.10;;;;;;5044064;28;46543;-60
2022/06/08 07:06:23;;;;;;;8.87;1.83;;;21.10;39.10;;;;;;5043927;28;46390;-60
2022/06/08 07:08:49;;;;;;;7.37;1.87;;;21.10;39.10;;;;;;5044227;28;46377;-60
2022/06/08 07:11:35;;;;;;;11.13;1.93;;;21.20;39.10;;;;;;5043765;28;46467;-60
2022/06/08 07:14:03;;;;;;;7.03;1.63;;;21.20;39.00;;;;;;5040717;28;46582;-61
2022/06/08 07:16:29;;;;;;;5.03;1.77;;;21.20;39.10;;;;;;5040134;28;46685;-60
2022/06/08 07:18:55;;;;;;;4.20;1.97;;;21.20;39.10;;;;;;5038338;28;46357;-60
2022/06/08 07:21:21;;;;;;;4.27;1.70;;;21.10;38.80;;;;;;5039753;28;46275;-61
2022/06/08 07:23:47;;;;;;;4.40;1.60;;;21.30;38.80;;;;;;5041043;28;46374;-60
2022/06/08 07:26:12;;;;;;;10.63;2.53;;;21.40;38.50;;;;;;5039782;28;47375;-61
2022/06/08 07:28:39;;;;;;;5.00;1.90;;;21.50;37.90;;;;;;5040423;28;46365;-61
2022/06/08 07:31:05;;;;;;;5.00;1.87;;;21.50;37.20;;;;;;5039845;28;46804;-60
2022/06/08 07:33:31;;;;;;;7.37;1.70;;;21.20;37.30;;;;;;5039875;28;46409;-60
2022/06/08 07:35:57;;;;;;;8.43;1.90;;;21.40;36.60;;;;;;5039861;28;46368;-61
2022/06/08 07:38:23;;;;;;;4.97;1.50;;;21.50;36.40;;;;;;5039287;28;46391;-60
2022/06/08 07:40:48;;;;;;;12.20;2.07;;;21.70;35.80;;;;;;5040613;28;46440;-60
2022/06/08 07:43:14;;;;;;;4.47;1.67;;;21.70;35.60;;;;;;5039396;28;46564;-60
2022/06/08 07:45:40;;;;;;;7.33;1.80;;;21.80;35.70;;;;;;5038932;28;46386;-61
2022/06/08 07:50:50;;;;;;;6.53;1.70;;;21.80;35.30;;;;;;5039502;28;46411;-60
2022/06/08 07:53:16;;;;;;;6.37;1.80;;;22.10;34.30;;;;;;5038222;28;46422;-60
2022/06/08 07:55:42;;;;;;;6.97;1.60;;;22.30;34.00;;;;;;5038281;28;47068;-60
2022/06/08 07:58:07;;;;;;;7.50;2.73;;;22.30;33.80;;;;;;5040235;28;46373;-60
2022/06/08 08:00:34;;;;;;;7.13;2.13;;;22.40;33.90;;;;;;5020980;28;46373;-60
2022/06/08 08:02:59;;;;;;;7.40;1.63;;;22.40;33.30;;;;;;5039620;28;46597;-61
2022/06/08 08:05:26;;;;;;;5.43;1.60;;;22.30;33.10;;;;;;5039631;28;45956;-60
2022/06/08 08:07:52;;;;;;;11.10;1.60;;;22.40;32.70;;;;;;5040317;28;46613;-60
2022/06/08 08:10:21;;;;;;;4.90;1.77;;;22.30;32.90;;;;;;5039136;28;46106;-59
2022/06/08 08:12:48;;;;;;;4.37;1.60;;;22.30;32.30;;;;;;5044399;28;46654;-59
2022/06/08 08:15:16;;;;;;;4.67;1.60;;;22.30;31.90;;;;;;5045342;28;46649;-60
2022/06/08 08:17:42;;;;;;;5.27;1.70;;;22.40;31.70;;;;;;5041757;28;45910;-60
2022/06/08 08:20:09;;;;;;;9.30;1.57;;;22.40;31.40;;;;;;5046544;28;45960;-62
2022/06/08 08:22:35;;;;;;;6.73;1.70;;;22.20;31.00;;;;;;5041863;28;46474;-60
2022/06/08 08:25:00;;;;;;;6.93;1.70;;;22.00;30.90;;;;;;5040090;28;46900;-59
2022/06/08 08:27:26;;;;;;;8.30;1.57;;;22.10;30.90;;;;;;5039654;28;46417;-59
2022/06/08 08:29:52;;;;;;;6.27;1.70;;;22.20;30.30;;;;;;5037601;28;45824;-59
2022/06/08 08:32:17;;;;;;;6.13;1.77;;;22.40;30.00;;;;;;5034228;28;46356;-60
2022/06/08 08:34:43;;;;;;;15.00;1.70;;;22.60;30.40;;;;;;5027789;28;46611;-59
2022/06/08 08:37:09;;;;;;;5.97;1.70;;;22.80;29.70;;;;;;5032414;28;46336;-59
2022/06/08 08:39:35;;;;;;;5.00;1.30;;;22.90;29.00;;;;;;5034002;28;46318;-59
2022/06/08 08:45:11;;;;;;;8.57;1.60;;;23.20;28.30;;;;;;5035389;28;46403;-59
2022/06/08 08:47:50;;;;;;;4.50;1.50;;;23.40;27.90;;;;;;5027531;28;46464;-61
2022/06/08 08:50:39;;;;;;;5.80;1.30;;;23.30;27.50;;;;;;5034258;28;46673;-60
2022/06/08 08:53:16;;;;;;;6.87;1.73;;;23.30;27.30;;;;;;5030059;28;46454;-60
2022/06/08 08:55:48;;;;;;;6.07;1.80;;;23.40;26.70;;;;;;5033850;28;46398;-59
2022/06/08 08:58:17;;;;;;;5.90;1.57;;;23.30;26.50;;;;;;5032337;28;46566;-59
2022/06/08 09:01:12;;;;;;;5.27;2.03;;;23.20;26.30;;;;;;5030101;28;46528;-59
2022/06/08 09:03:54;;;;;;;6.07;1.67;;;23.30;26.50;;;;;;5030272;28;46314;-60
2022/06/08 09:06:26;;;;;;;5.30;1.80;;;23.50;26.40;;;;;;5029791;28;46437;-60
2022/06/08 09:08:55;;;;;;;3.30;1.50;;;23.60;26.50;;;;;;5031089;28;46580;-60
2022/06/08 09:11:34;;;;;;;7.57;1.90;;;23.80;26.80;;;;;;5032204;28;46508;-60
2022/06/08 09:14:05;;;;;;;7.83;2.30;;;23.80;26.40;;;;;;5033266;28;46337;-59
2022/06/08 09:16:43;;;;;;;8.07;1.67;;;23.90;26.30;;;;;;5028269;28;47129;-60
2022/06/08 09:19:23;;;;;;;3.33;1.30;;;23.90;25.20;;;;;;5029274;28;46596;-60
2022/06/08 09:21:52;;;;;;;5.90;1.30;;;23.80;25.10;;;;;;5034244;28;46461;-59
2022/06/08 09:24:33;;;;;;;3.57;1.37;;;23.50;24.90;;;;;;5035649;28;46018;-60
2022/06/08 09:27:26;;;;;;;13.13;1.97;;;23.30;24.80;;;;;;5029965;28;46538;-59
2022/06/08 09:30:04;;;;;;;5.53;2.00;;;23.30;24.80;;;;;;5028252;28;46442;-60
2022/06/08 09:32:29;;;;;;;5.27;1.37;;;23.60;25.00;;;;;;5030930;28;46421;-59
2022/06/08 09:34:59;;;;;;;4.93;1.30;;;23.80;24.70;;;;;;5028990;28;45800;-59
2022/06/08 09:37:25;;;;;;;6.50;1.30;;;23.90;24.50;;;;;;5034165;28;46352;-59
2022/06/08 09:39:56;;;;;;;7.60;1.47;;;24.10;24.30;;;;;;5034248;28;46413;-59
2022/06/08 09:42:52;;;;;;;5.13;1.50;;;24.20;23.90;;;;;;5037334;28;46417;-60
2022/06/08 09:45:34;;;;;;;6.80;1.70;;;24.30;23.20;;;;;;5030216;28;46579;-61
2022/06/08 09:54:06;;;;;;;5.60;1.70;;;24.50;22.90;;;;;;5023279;28;46406;-60
2022/06/08 09:56:48;;;;;;;6.43;1.30;;;24.40;21.20;;;;;;5031442;28;46327;-61
2022/06/08 09:59:14;;;;;;;9.00;1.90;;;24.40;20.60;;;;;;5026392;28;46482;-59
2022/06/08 10:01:57;;;;;;;4.00;1.30;;;24.50;20.80;;;;;;5028040;28;46423;-60
2022/06/08 10:05:01;;;;;;;4.10;1.50;;;24.20;20.70;;;;;;5032826;28;46421;-60
2022/06/08 10:07:32;;;;;;;3.70;1.40;;;24.20;20.70;;;;;;5033928;28;46460;-60
2022/06/08 10:10:25;;;;;;;6.17;1.40;;;24.30;20.90;;;;;;5034613;28;46370;-61
2022/06/08 10:13:00;;;;;;;5.60;1.30;;;24.50;20.70;;;;;;5032060;28;46342;-62
2022/06/08 10:15:31;;;;;;;6.20;1.30;;;24.70;20.30;;;;;;5031386;28;46201;-61
2022/06/08 10:18:05;;;;;;;5.27;1.43;;;24.80;19.90;;;;;;5033959;28;46323;-61
2022/06/08 10:20:38;;;;;;;6.63;2.00;;;24.90;19.50;;;;;;5030886;28;46614;-61
2022/06/08 10:23:24;;;;;;;8.10;1.20;;;24.90;19.40;;;;;;5026332;28;46350;-61
2022/06/08 10:26:01;;;;;;;8.17;1.40;;;24.70;19.20;;;;;;5033778;28;46796;-61
2022/06/08 10:28:35;;;;;;;3.77;1.33;;;24.80;19.00;;;;;;5029090;28;46323;-61
2022/06/08 10:31:11;;;;;;;6.73;1.70;;;25.00;19.00;;;;;;5030045;28;47030;-61
2022/06/08 10:33:47;;;;;;;5.10;1.70;;;25.00;19.10;;;;;;5030786;28;45736;-62
2022/06/08 10:36:14;;;;;;;5.57;1.40;;;25.40;19.00;;;;;;5031632;28;46415;-61
2022/06/08 10:38:42;;;;;;;3.70;1.50;;;25.70;18.50;;;;;;5031740;28;46392;-61
2022/06/08 10:44:47;;;;;;;5.07;1.30;;;25.80;16.40;;;;;;5030978;28;46437;-62
2022/06/08 10:47:13;;;;;;;6.23;1.63;;;25.10;17.60;;;;;;5029712;28;46258;-62
2022/06/08 10:49:38;;;;;;;11.07;1.87;;;24.80;17.90;;;;;;5030764;28;46400;-61
2022/06/08 10:52:19;;;;;;;3.80;1.30;;;24.80;18.30;;;;;;5033309;28;46653;-61
2022/06/08 10:54:57;;;;;;;6.63;1.87;;;25.00;17.80;;;;;;5032472;28;46508;-62
2022/06/08 10:57:35;;;;;;;5.23;1.40;;;25.20;17.90;;;;;;5032436;28;45835;-61
2022/06/08 11:00:19;;;;;;;5.93;1.60;;;25.00;19.40;;;;;;5031424;28;46509;-61
2022/06/08 11:03:40;;;;;;;4.43;1.53;;;25.00;19.80;;;;;;5042081;28;48792;-61
2022/06/08 11:06:11;;;;;;;4.40;1.30;;;25.10;19.70;;;;;;5029787;28;45900;-61
2022/06/08 11:08:56;;;;;;;4.20;1.47;;;25.20;19.90;;;;;;5034811;28;46571;-61
2022/06/08 11:11:47;;;;;;;4.63;1.40;;;25.20;20.20;;;;;;5032904;28;46497;-60
2022/06/08 11:14:48;;;;;;;4.83;1.47;;;25.40;20.20;;;;;;5032680;28;46475;-62
2022/06/08 11:17:17;;;;;;;7.63;1.90;;;25.60;20.00;;;;;;5028070;28;46514;-60
2022/06/08 11:19:45;;;;;;;5.20;1.43;;;25.60;20.30;;;;;;5036270;28;46473;-59
2022/06/08 11:22:21;;;;;;;2.90;1.40;;;25.50;20.60;;;;;;5037840;28;46382;-59
2022/06/08 11:24:51;;;;;;;3.70;1.60;;;25.50;20.70;;;;;;5033425;28;46450;-60
2022/06/08 11:27:36;;;;;;;7.13;1.80;;;25.40;20.80;;;;;;5037657;28;46422;-60
2022/06/08 11:30:10;;;;;;;5.57;1.57;;;25.40;20.70;;;;;;5030899;28;46353;-60
2022/06/08 11:32:36;;;;;;;7.00;1.80;;;25.50;20.80;;;;;;5033852;28;46690;-61
2022/06/08 11:35:25;;;;;;;4.37;1.70;;;25.70;20.30;;;;;;5030105;28;46309;-61
2022/06/08 11:38:15;;;;;;;6.33;1.80;;;25.60;20.10;;;;;;5030796;28;46439;-61
2022/06/08 11:40:41;;;;;;;4.87;1.37;;;25.10;19.90;;;;;;5033181;28;46339;-61
2022/06/08 11:43:10;;;;;;;5.40;1.90;;;25.00;20.30;;;;;;5033728;28;46378;-61
2022/06/08 11:45:57;;;;;;;4.13;1.40;;;24.80;20.00;;;;;;5031422;28;47391;-62
2022/06/08 11:48:27;;;;;;;9.17;1.53;;;24.70;20.80;;;;;;5030959;28;46585;-60
2022/06/08 11:51:02;;;;;;;3.13;1.47;;;24.80;20.30;;;;;;5030291;28;46482;-59
2022/06/08 11:53:39;;;;;;;4.30;1.27;;;24.80;20.60;;;;;;5033401;28;46389;-60
2022/06/08 11:56:29;;;;;;;6.10;1.57;;;25.00;21.10;;;;;;5035479;28;48017;-61
2022/06/08 11:58:58;;;;;;;3.50;1.40;;;25.20;20.80;;;;;;5030341;28;46500;-60
2022/06/08 12:01:31;;;;;;;6.87;1.70;;;25.30;20.40;;;;;;5030884;28;46380;-60
2022/06/08 12:04:06;;;;;;;5.87;1.50;;;25.20;20.00;;;;;;5033517;28;46365;-60
2022/06/08 12:06:35;;;;;;;5.03;1.47;;;25.20;20.00;;;;;;5029801;28;46456;-60
2022/06/08 12:09:10;;;;;;;5.77;1.50;;;25.00;19.80;;;;;;5034309;28;46421;-60
2022/06/08 12:11:40;;;;;;;5.13;1.73;;;25.10;19.60;;;;;;5031061;28;45860;-61
2022/06/08 12:14:21;;;;;;;5.50;1.67;;;25.20;19.10;;;;;;5030519;28;46403;-62
2022/06/08 12:17:03;;;;;;;4.40;1.27;;;24.80;19.20;;;;;;5031716;28;46343;-60
2022/06/08 12:19:38;;;;;;;5.00;1.43;;;24.70;19.50;;;;;;5029835;28;46390;-60
2022/06/08 12:22:26;;;;;;;3.60;1.20;;;24.70;19.70;;;;;;5030805;28;46272;-61
2022/06/08 12:25:17;;;;;;;3.80;1.20;;;24.80;19.90;;;;;;5032666;28;46482;-60
2022/06/08 12:27:54;;;;;;;9.20;1.37;;;24.60;20.00;;;;;;5034623;28;47042;-61
2022/06/08 12:30:54;;;;;;;5.60;1.50;;;24.60;20.10;;;;;;5031109;28;46304;-61
2022/06/08 12:33:29;;;;;;;6.67;1.43;;;24.70;20.40;;;;;;5036436;28;46419;-61
2022/06/08 12:36:28;;;;;;;4.50;1.30;;;24.90;20.20;;;;;;5030636;28;46633;-60
2022/06/08 12:39:15;;;;;;;3.60;1.40;;;24.90;19.90;;;;;;5033489;28;46382;-59
2022/06/08 12:41:54;;;;;;;3.33;1.50;;;24.80;20.00;;;;;;5032843;28;46433;-60
2022/06/08 12:44:23;;;;;;;4.43;1.67;;;25.00;20.00;;;;;;5034032;28;46583;-61
2022/06/08 12:46:57;;;;;;;8.93;1.63;;;25.10;20.20;;;;;;5027349;28;45847;-61
2022/06/08 12:49:39;;;;;;;4.40;1.53;;;25.20;20.20;;;;;;5029101;28;46415;-61
2022/06/08 12:52:27;;;;;;;8.37;1.93;;;25.10;20.10;;;;;;5030450;28;46417;-61
2022/06/08 12:54:53;;;;;;;5.53;1.50;;;25.10;19.80;;;;;;5032838;28;46613;-61
2022/06/08 12:57:22;;;;;;;4.90;1.50;;;25.20;20.10;;;;;;5032849;28;46413;-61
2022/06/08 12:59:50;;;;;;;9.60;1.50;;;25.00;20.20;;;;;;5029207;28;46512;-61
2022/06/08 13:02:26;;;;;;;4.00;1.43;;;25.20;20.30;;;;;;5029706;28;46599;-59
2022/06/08 13:04:53;;;;;;;5.93;1.60;;;25.30;20.30;;;;;;5036766;28;46504;-61
2022/06/08 13:07:23;;;;;;;4.73;1.57;;;25.50;19.80;;;;;;5030947;28;46446;-60
2022/06/08 13:09:49;;;;;;;5.30;1.90;;;25.30;19.30;;;;;;5033060;28;46197;-62
2022/06/08 13:12:21;;;;;;;5.00;1.20;;;25.40;19.60;;;;;;5029996;28;46319;-59
2022/06/08 13:14:47;;;;;;;2.90;1.27;;;25.60;19.00;;;;;;5031632;28;46367;-61
2022/06/08 13:17:12;;;;;;;4.07;1.40;;;25.70;19.00;;;;;;5031730;28;46413;-61
2022/06/08 13:19:38;;;;;;;6.60;1.60;;;25.60;18.70;;;;;;5027444;28;47094;-62
2022/06/08 13:22:05;;;;;;;3.60;1.43;;;25.60;18.30;;;;;;5030217;28;46411;-62
2022/06/08 13:24:30;;;;;;;3.03;1.30;;;25.80;18.10;;;;;;5032988;28;46775;-62
2022/06/08 13:26:56;;;;;;;4.30;1.43;;;25.90;18.00;;;;;;5030220;28;46544;-63
2022/06/08 13:29:21;;;;;;;5.73;1.50;;;25.80;18.20;;;;;;5028800;28;46401;-62
2022/06/08 13:31:48;;;;;;;4.40;1.60;;;26.00;17.90;;;;;;5027460;28;46405;-61